sensor_id;sensor_type;location;lat;lon;timestamp;pressure;altitude;pressure_sealevel;temperature;humidity
49030;BME280;43337;52.070;4.508;2023-02-19T00:01:15;101956.75;;;9.00;100.00
49030;BME280;43337;52.070;4.508;2023-02-19T00:03:41;101961.16;;;8.99;100.00
49030;BME280;43337;52.070;4.508;2023-02-19T00:06:09;101968.94;;;9.02;100.00
49030;BME280;43337;52.070;4.508;2023-02-19T00:08:37;101965.44;;;9.03;100.00
49030;BME280;43337;52.070;4.508;2023-02-19T00:11:03;101972.44;;;9.04;100.00
49030;BME280;43337;52.070;4.508;2023-02-19T00:13:30;101963.69;;;9.02;100.00
49030;BME280;43337;52.070;4.508;2023-02-19T00:15:55;101951.50;;;9.00;100.00
49030;BME280;43337;52.070;4.508;2023-02-19T00:18:22;101963.63;;;9.05;100.00
49030;BME280;43337;52.070;4.508;2023-02-19T00:20:48;101960.19;;;9.02;100.00
49030;BME280;43337;52.070;4.508;2023-02-19T00:23:13;101955.91;;;8.98;100.00
49030;BME280;43337;52.070;4.508;2023-02-19T00:25:39;101962.88;;;8.99;100.00
49030;BME280;43337;52.070;4.508;2023-02-19T00:28:04;101957.56;;;9.02;100.00
49030;BME280;43337;52.070;4.508;2023-02-19T00:30:30;101951.50;;;8.98;100.00
49030;BME280;43337;52.070;4.508;2023-02-19T00:32:55;101959.38;;;9.00;100.00
49030;BME280;43337;52.070;4.508;2023-02-19T00:35:20;101965.50;;;9.00;100.00
49030;BME280;43337;52.070;4.508;2023-02-19T00:37:46;101973.31;;;9.03;100.00
49030;BME280;43337;52.070;4.508;2023-02-19T00:40:11;101962.06;;;8.97;100.00
49030;BME280;43337;52.070;4.508;2023-02-19T00:42:37;101977.72;;;9.01;100.00
49030;BME280;43337;52.070;4.508;2023-02-19T00:45:02;101977.72;;;9.01;100.00
49030;BME280;43337;52.070;4.508;2023-02-19T00:47:28;101963.78;;;8.99;100.00
49030;BME280;43337;52.070;4.508;2023-02-19T00:49:53;101994.34;;;9.02;100.00
49030;BME280;43337;52.070;4.508;2023-02-19T00:52:18;101989.09;;;9.02;100.00
49030;BME280;43337;52.070;4.508;2023-02-19T00:54:44;101964.81;;;8.89;100.00
49030;BME280;43337;52.070;4.508;2023-02-19T00:57:09;101977.78;;;8.98;100.00
49030;BME280;43337;52.070;4.508;2023-02-19T00:59:35;101981.25;;;8.99;100.00
49030;BME280;43337;52.070;4.508;2023-02-19T01:02:01;101989.19;;;8.97;100.00
49030;BME280;43337;52.070;4.508;2023-02-19T01:04:26;101986.59;;;8.96;100.00
49030;BME280;43337;52.070;4.508;2023-02-19T01:06:52;101994.34;;;9.03;100.00
49030;BME280;43337;52.070;4.508;2023-02-19T01:09:18;101969.94;;;8.95;100.00
49030;BME280;43337;52.070;4.508;2023-02-19T01:11:44;101973.34;;;9.02;100.00
49030;BME280;43337;52.070;4.508;2023-02-19T01:14:10;101992.44;;;9.12;100.00
49030;BME280;43337;52.070;4.508;2023-02-19T01:16:35;101995.84;;;9.17;100.00
49030;BME280;43337;52.070;4.508;2023-02-19T01:19:01;101991.50;;;9.16;100.00
49030;BME280;43337;52.070;4.508;2023-02-19T01:21:29;101986.25;;;9.16;100.00
49030;BME280;43337;52.070;4.508;2023-02-19T01:23:55;101984.53;;;9.13;100.00
49030;BME280;43337;52.070;4.508;2023-02-19T01:26:27;101996.75;;;9.14;100.00
49030;BME280;43337;52.070;4.508;2023-02-19T01:28:53;101988.94;;;9.11;100.00
49030;BME280;43337;52.070;4.508;2023-02-19T01:31:21;101990.69;;;9.12;100.00
49030;BME280;43337;52.070;4.508;2023-02-19T01:33:50;101991.50;;;9.16;100.00
49030;BME280;43337;52.070;4.508;2023-02-19T01:36:15;101995.84;;;9.17;100.00
49030;BME280;43337;52.070;4.508;2023-02-19T01:38:41;101998.47;;;9.17;100.00
49030;BME280;43337;52.070;4.508;2023-02-19T01:41:09;101981.94;;;9.12;100.00
49030;BME280;43337;52.070;4.508;2023-02-19T01:46:19;101995.88;;;9.15;100.00
49030;BME280;43337;52.070;4.508;2023-02-19T01:48:45;101997.69;;;9.12;100.00
49030;BME280;43337;52.070;4.508;2023-02-19T01:51:14;101995.94;;;9.12;100.00
49030;BME280;43337;52.070;4.508;2023-02-19T01:53:43;101996.88;;;9.08;100.00
49030;BME280;43337;52.070;4.508;2023-02-19T01:56:12;101985.69;;;8.95;100.00
49030;BME280;43337;52.070;4.508;2023-02-19T01:58:39;101994.47;;;8.96;100.00
49030;BME280;43337;52.070;4.508;2023-02-19T02:01:06;102006.59;;;9.03;100.00
49030;BME280;43337;52.070;4.508;2023-02-19T02:03:33;102001.41;;;9.00;100.00
49030;BME280;43337;52.070;4.508;2023-02-19T02:06:18;102015.38;;;9.02;100.00
49030;BME280;43337;52.070;4.508;2023-02-19T02:08:46;102018.03;;;9.00;100.00
49030;BME280;43337;52.070;4.508;2023-02-19T02:11:30;102019.84;;;8.97;100.00
49030;BME280;43337;52.070;4.508;2023-02-19T02:13:56;102015.53;;;8.91;100.00
49030;BME280;43337;52.070;4.508;2023-02-19T02:16:26;102023.28;;;8.99;100.00
49030;BME280;43337;52.070;4.508;2023-02-19T02:19:04;102023.31;;;8.97;100.00
49030;BME280;43337;52.070;4.508;2023-02-19T02:21:35;102021.56;;;8.98;100.00
49030;BME280;43337;52.070;4.508;2023-02-19T02:27:13;102024.19;;;8.98;100.00
49030;BME280;43337;52.070;4.508;2023-02-19T02:35:20;102036.53;;;8.91;100.00
49030;BME280;43337;52.070;4.508;2023-02-19T02:37:48;102031.28;;;8.93;100.00
49030;BME280;43337;52.070;4.508;2023-02-19T02:40:16;102020.09;;;8.80;100.00
49030;BME280;43337;52.070;4.508;2023-02-19T02:42:43;102025.38;;;8.78;100.00
49030;BME280;43337;52.070;4.508;2023-02-19T02:48:30;102025.41;;;8.77;100.00
49030;BME280;43337;52.070;4.508;2023-02-19T02:50:59;102047.28;;;8.76;100.00
49030;BME280;43337;52.070;4.508;2023-02-19T02:53:33;102034.25;;;8.73;100.00
49030;BME280;43337;52.070;4.508;2023-02-19T02:56:18;102046.44;;;8.75;100.00
49030;BME280;43337;52.070;4.508;2023-02-19T02:58:46;102044.72;;;8.74;100.00
49030;BME280;43337;52.070;4.508;2023-02-19T03:01:28;102045.59;;;8.73;100.00
49030;BME280;43337;52.070;4.508;2023-02-19T03:04:27;102031.63;;;8.73;100.00
49030;BME280;43337;52.070;4.508;2023-02-19T03:06:54;102051.66;;;8.78;100.00
49030;BME280;43337;52.070;4.508;2023-02-19T03:09:31;102026.41;;;8.70;100.00
49030;BME280;43337;52.070;4.508;2023-02-19T03:12:01;102055.16;;;8.76;100.00
49030;BME280;43337;52.070;4.508;2023-02-19T03:14:48;102058.69;;;8.76;100.00
49030;BME280;43337;52.070;4.508;2023-02-19T03:17:38;102050.84;;;8.72;100.00
49030;BME280;43337;52.070;4.508;2023-02-19T03:20:24;102066.50;;;8.81;100.00
49030;BME280;43337;52.070;4.508;2023-02-19T03:22:52;102071.78;;;8.78;100.00
49030;BME280;43337;52.070;4.508;2023-02-19T03:25:21;102049.22;;;8.65;100.00
49030;BME280;43337;52.070;4.508;2023-02-19T03:28:08;102070.91;;;8.77;100.00
49030;BME280;43337;52.070;4.508;2023-02-19T03:30:39;102036.19;;;8.57;100.00
49030;BME280;43337;52.070;4.508;2023-02-19T03:33:14;102076.19;;;8.77;100.00
49030;BME280;43337;52.070;4.508;2023-02-19T03:35:44;102076.34;;;8.65;100.00
49030;BME280;43337;52.070;4.508;2023-02-19T03:38:15;102049.38;;;8.55;100.00
49030;BME280;43337;52.070;4.508;2023-02-19T03:40:57;102079.81;;;8.67;100.00
49030;BME280;43337;52.070;4.508;2023-02-19T03:43:34;102061.66;;;8.53;100.00
49030;BME280;43337;52.070;4.508;2023-02-19T03:46:05;102094.75;;;8.65;100.00
49030;BME280;43337;52.070;4.508;2023-02-19T03:48:34;102067.88;;;8.46;100.00
49030;BME280;43337;52.070;4.508;2023-02-19T03:54:18;102094.81;;;8.59;100.00
49030;BME280;43337;52.070;4.508;2023-02-19T03:56:51;102091.41;;;8.52;100.00
49030;BME280;43337;52.070;4.508;2023-02-19T03:59:27;102087.94;;;8.50;100.00
49030;BME280;43337;52.070;4.508;2023-02-19T04:02:04;102099.22;;;8.55;100.00
49030;BME280;43337;52.070;4.508;2023-02-19T04:04:35;102101.84;;;8.55;100.00
49030;BME280;43337;52.070;4.508;2023-02-19T04:07:01;102108.91;;;8.52;100.00
49030;BME280;43337;52.070;4.508;2023-02-19T04:09:35;102105.38;;;8.54;100.00
49030;BME280;43337;52.070;4.508;2023-02-19T04:12:03;102073.13;;;8.45;100.00
49030;BME280;43337;52.070;4.508;2023-02-19T04:14:37;102099.16;;;8.62;100.00
49030;BME280;43337;52.070;4.508;2023-02-19T04:17:10;102089.69;;;8.50;100.00
49030;BME280;43337;52.070;4.508;2023-02-19T04:19:39;102091.50;;;8.46;100.00
49030;BME280;43337;52.070;4.508;2023-02-19T04:22:07;102119.38;;;8.55;100.00
49030;BME280;43337;52.070;4.508;2023-02-19T04:24:38;102123.63;;;8.64;100.00
49030;BME280;43337;52.070;4.508;2023-02-19T04:27:05;102115.81;;;8.59;100.00
49030;BME280;43337;52.070;4.508;2023-02-19T04:29:32;102134.97;;;8.64;100.00
49030;BME280;43337;52.070;4.508;2023-02-19T04:31:58;102114.19;;;8.50;100.00
49030;BME280;43337;52.070;4.508;2023-02-19T04:34:23;102142.84;;;8.64;100.00
49030;BME280;43337;52.070;4.508;2023-02-19T04:36:49;102141.13;;;8.63;100.00
49030;BME280;43337;52.070;4.508;2023-02-19T04:39:14;102162.94;;;8.68;100.00
49030;BME280;43337;52.070;4.508;2023-02-19T04:41:39;102167.34;;;8.66;100.00
49030;BME280;43337;52.070;4.508;2023-02-19T04:44:05;102171.75;;;8.64;100.00
49030;BME280;43337;52.070;4.508;2023-02-19T04:46:30;102169.19;;;8.61;100.00
49030;BME280;43337;52.070;4.508;2023-02-19T04:48:56;102177.88;;;8.63;100.00
49030;BME280;43337;52.070;4.508;2023-02-19T04:51:21;102184.03;;;8.62;100.00
49030;BME280;43337;52.070;4.508;2023-02-19T04:53:46;102183.19;;;8.59;100.00
49030;BME280;43337;52.070;4.508;2023-02-19T04:56:14;102185.06;;;8.50;100.00
49030;BME280;43337;52.070;4.508;2023-02-19T04:58:41;102165.06;;;8.42;100.00
49030;BME280;43337;52.070;4.508;2023-02-19T05:01:07;102197.22;;;8.58;100.00
49030;BME280;43337;52.070;4.508;2023-02-19T05:03:33;102191.16;;;8.51;100.00
49030;BME280;43337;52.070;4.508;2023-02-19T05:06:07;102200.81;;;8.50;100.00
49030;BME280;43337;52.070;4.508;2023-02-19T05:08:32;102209.56;;;8.48;100.00
49030;BME280;43337;52.070;4.508;2023-02-19T05:10:59;102207.81;;;8.48;100.00
49030;BME280;43337;52.070;4.508;2023-02-19T05:13:25;102218.38;;;8.44;100.00
49030;BME280;43337;52.070;4.508;2023-02-19T05:16:02;102226.22;;;8.47;100.00
49030;BME280;43337;52.070;4.508;2023-02-19T05:18:29;102233.22;;;8.45;100.00
49030;BME280;43337;52.070;4.508;2023-02-19T05:20:56;102227.13;;;8.41;100.00
49030;BME280;43337;52.070;4.508;2023-02-19T05:23:24;102226.28;;;8.41;100.00
49030;BME280;43337;52.070;4.508;2023-02-19T05:25:49;102232.41;;;8.40;100.00
49030;BME280;43337;52.070;4.508;2023-02-19T05:28:15;102235.94;;;8.37;100.00
49030;BME280;43337;52.070;4.508;2023-02-19T05:30:48;102226.31;;;8.33;100.00
49030;BME280;43337;52.070;4.508;2023-02-19T05:33:15;102234.19;;;8.35;100.00
49030;BME280;43337;52.070;4.508;2023-02-19T05:35:42;102230.69;;;8.36;100.00
49030;BME280;43337;52.070;4.508;2023-02-19T05:38:08;102216.69;;;8.35;100.00
49030;BME280;43337;52.070;4.508;2023-02-19T05:40:34;102223.69;;;8.38;100.00
49030;BME280;43337;52.070;4.508;2023-02-19T05:42:59;102218.44;;;8.33;100.00
49030;BME280;43337;52.070;4.508;2023-02-19T05:45:25;102227.19;;;8.38;100.00
49030;BME280;43337;52.070;4.508;2023-02-19T05:47:50;102221.94;;;8.33;100.00
49030;BME280;43337;52.070;4.508;2023-02-19T05:50:16;102220.25;;;8.31;100.00
49030;BME280;43337;52.070;4.508;2023-02-19T05:52:41;102228.06;;;8.36;100.00
49030;BME280;43337;52.070;4.508;2023-02-19T05:55:08;102225.44;;;8.36;100.00
49030;BME280;43337;52.070;4.508;2023-02-19T05:57:42;102228.09;;;8.31;100.00
49030;BME280;43337;52.070;4.508;2023-02-19T06:00:12;102246.44;;;8.36;100.00
49030;BME280;43337;52.070;4.508;2023-02-19T06:02:38;102246.44;;;8.32;100.00
49030;BME280;43337;52.070;4.508;2023-02-19T06:05:04;102232.53;;;8.27;100.00
49030;BME280;43337;52.070;4.508;2023-02-19T06:07:30;102243.00;;;8.26;100.00
49030;BME280;43337;52.070;4.508;2023-02-19T06:09:56;102251.72;;;8.29;100.00
49030;BME280;43337;52.070;4.508;2023-02-19T06:12:21;102250.88;;;8.26;100.00
49030;BME280;43337;52.070;4.508;2023-02-19T06:14:47;102245.69;;;8.21;100.00
49030;BME280;43337;52.070;4.508;2023-02-19T06:17:12;102259.66;;;8.25;100.00
49030;BME280;43337;52.070;4.508;2023-02-19T06:19:38;102264.91;;;8.23;100.00
49030;BME280;43337;52.070;4.508;2023-02-19T06:22:03;102281.47;;;8.28;100.00
49030;BME280;43337;52.070;4.508;2023-02-19T06:24:28;102271.88;;;8.27;100.00
49030;BME280;43337;52.070;4.508;2023-02-19T06:26:54;102282.38;;;8.26;100.00
49030;BME280;43337;52.070;4.508;2023-02-19T06:29:20;102278.91;;;8.22;100.00
49030;BME280;43337;52.070;4.508;2023-02-19T06:31:45;102285.88;;;8.28;100.00
49030;BME280;43337;52.070;4.508;2023-02-19T06:34:11;102279.75;;;8.27;100.00
49030;BME280;43337;52.070;4.508;2023-02-19T06:36:36;102285.91;;;8.23;100.00
49030;BME280;43337;52.070;4.508;2023-02-19T06:39:03;102296.41;;;8.22;100.00
49030;BME280;43337;52.070;4.508;2023-02-19T06:41:29;102292.88;;;8.24;100.00
49030;BME280;43337;52.070;4.508;2023-02-19T06:43:56;102293.75;;;8.25;100.00
49030;BME280;43337;52.070;4.508;2023-02-19T06:46:21;102283.31;;;8.20;100.00
49030;BME280;43337;52.070;4.508;2023-02-19T06:48:47;102295.53;;;8.21;100.00
49030;BME280;43337;52.070;4.508;2023-02-19T06:51:14;102299.03;;;8.22;100.00
49030;BME280;43337;52.070;4.508;2023-02-19T06:53:40;102294.69;;;8.19;100.00
49030;BME280;43337;52.070;4.508;2023-02-19T06:56:18;102298.25;;;8.12;100.00
49030;BME280;43337;52.070;4.508;2023-02-19T06:58:45;102315.69;;;8.18;100.00
49030;BME280;43337;52.070;4.508;2023-02-19T07:01:10;102300.84;;;8.14;100.00
49030;BME280;43337;52.070;4.508;2023-02-19T07:03:36;102313.06;;;8.15;100.00
49030;BME280;43337;52.070;4.508;2023-02-19T07:06:03;102321.84;;;8.15;100.00
49030;BME280;43337;52.070;4.508;2023-02-19T07:08:28;102309.69;;;8.05;100.00
49030;BME280;43337;52.070;4.508;2023-02-19T07:10:56;102336.69;;;8.15;100.00
49030;BME280;43337;52.070;4.508;2023-02-19T07:13:23;102340.22;;;8.15;100.00
49030;BME280;43337;52.070;4.508;2023-02-19T07:15:49;102326.25;;;8.08;100.00
49030;BME280;43337;52.070;4.508;2023-02-19T07:18:15;102337.63;;;8.06;100.00
49030;BME280;43337;52.070;4.508;2023-02-19T07:20:40;102335.09;;;7.97;100.00
49030;BME280;43337;52.070;4.508;2023-02-19T07:23:06;102357.72;;;8.10;100.00
49030;BME280;43337;52.070;4.508;2023-02-19T07:25:31;102375.22;;;8.08;100.00
49030;BME280;43337;52.070;4.508;2023-02-19T07:27:56;102365.63;;;8.05;100.00
49030;BME280;43337;52.070;4.508;2023-02-19T07:30:22;102374.38;;;8.03;100.00
49030;BME280;43337;52.070;4.508;2023-02-19T07:32:47;102376.16;;;7.99;100.00
49030;BME280;43337;52.070;4.508;2023-02-19T07:35:12;102384.00;;;7.99;100.00
49030;BME280;43337;52.070;4.508;2023-02-19T07:37:39;102383.16;;;7.99;100.00
49030;BME280;43337;52.070;4.508;2023-02-19T07:40:05;102379.69;;;7.95;100.00
49030;BME280;43337;52.070;4.508;2023-02-19T07:42:31;102390.19;;;7.94;100.00
49030;BME280;43337;52.070;4.508;2023-02-19T07:44:56;102391.06;;;7.93;100.00
49030;BME280;43337;52.070;4.508;2023-02-19T07:47:22;102408.53;;;7.97;100.00
49030;BME280;43337;52.070;4.508;2023-02-19T07:49:47;102412.03;;;7.94;100.00
49030;BME280;43337;52.070;4.508;2023-02-19T07:52:13;102406.81;;;7.91;100.00
49030;BME280;43337;52.070;4.508;2023-02-19T07:54:38;102408.63;;;7.85;100.00
49030;BME280;43337;52.070;4.508;2023-02-19T07:57:03;102421.66;;;7.91;100.00
49030;BME280;43337;52.070;4.508;2023-02-19T07:59:29;102428.69;;;7.87;100.00
49030;BME280;43337;52.070;4.508;2023-02-19T08:01:54;102431.31;;;7.89;100.00
49030;BME280;43337;52.070;4.508;2023-02-19T08:04:38;102428.66;;;7.90;100.00
49030;BME280;43337;52.070;4.508;2023-02-19T08:07:03;102432.22;;;7.85;100.00
49030;BME280;43337;52.070;4.508;2023-02-19T08:09:29;102433.94;;;7.87;100.00
49030;BME280;43337;52.070;4.508;2023-02-19T08:11:55;102445.31;;;7.86;100.00
49030;BME280;43337;52.070;4.508;2023-02-19T08:14:39;102451.41;;;7.90;100.00
49030;BME280;43337;52.070;4.508;2023-02-19T08:17:04;102447.94;;;7.83;100.00
49030;BME280;43337;52.070;4.508;2023-02-19T08:19:30;102445.28;;;7.88;100.00
49030;BME280;43337;52.070;4.508;2023-02-19T08:21:55;102440.94;;;7.83;100.00
49030;BME280;43337;52.070;4.508;2023-02-19T08:24:20;102447.94;;;7.85;100.00
49030;BME280;43337;52.070;4.508;2023-02-19T08:26:46;102443.59;;;7.79;100.00
49030;BME280;43337;52.070;4.508;2023-02-19T08:29:11;102453.19;;;7.85;100.00
49030;BME280;43337;52.070;4.508;2023-02-19T08:31:37;102464.53;;;7.87;100.00
49030;BME280;43337;52.070;4.508;2023-02-19T08:34:02;102455.81;;;7.81;100.00
49030;BME280;43337;52.070;4.508;2023-02-19T08:36:28;102454.06;;;7.79;100.00
49030;BME280;43337;52.070;4.508;2023-02-19T08:38:53;102475.88;;;7.93;100.00
49030;BME280;43337;52.070;4.508;2023-02-19T08:41:19;102468.00;;;7.96;100.00
49030;BME280;43337;52.070;4.508;2023-02-19T08:43:45;102454.88;;;7.96;100.00
49030;BME280;43337;52.070;4.508;2023-02-19T08:46:11;102463.59;;;7.98;100.00
49030;BME280;43337;52.070;4.508;2023-02-19T08:48:37;102466.19;;;8.03;100.00
49030;BME280;43337;52.070;4.508;2023-02-19T08:51:06;102457.44;;;8.02;100.00
49030;BME280;43337;52.070;4.508;2023-02-19T08:53:33;102449.63;;;7.93;100.00
49030;BME280;43337;52.070;4.508;2023-02-19T08:56:10;102451.34;;;8.00;100.00
49030;BME280;43337;52.070;4.508;2023-02-19T08:58:35;102460.94;;;8.07;100.00
49030;BME280;43337;52.070;4.508;2023-02-19T09:01:06;102451.31;;;8.05;100.00
49030;BME280;43337;52.070;4.508;2023-02-19T09:03:32;102453.06;;;8.06;100.00
49030;BME280;43337;52.070;4.508;2023-02-19T09:05:57;102468.75;;;8.12;100.00
49030;BME280;43337;52.070;4.508;2023-02-19T09:08:22;102478.38;;;8.13;100.00
49030;BME280;43337;52.070;4.508;2023-02-19T09:10:57;102482.78;;;8.11;100.00
49030;BME280;43337;52.070;4.508;2023-02-19T09:13:22;102477.47;;;8.14;100.00
49030;BME280;43337;52.070;4.508;2023-02-19T09:15:47;102477.47;;;8.14;100.00
49030;BME280;43337;52.070;4.508;2023-02-19T09:18:13;102483.63;;;8.13;100.00
49030;BME280;43337;52.070;4.508;2023-02-19T09:20:38;102498.44;;;8.23;100.00
49030;BME280;43337;52.070;4.508;2023-02-19T09:23:03;102490.59;;;8.19;100.00
49030;BME280;43337;52.070;4.508;2023-02-19T09:25:29;102510.63;;;8.29;100.00
49030;BME280;43337;52.070;4.508;2023-02-19T09:27:55;102515.84;;;8.35;100.00
49030;BME280;43337;52.070;4.508;2023-02-19T09:30:20;102515.88;;;8.38;100.00
49030;BME280;43337;52.070;4.508;2023-02-19T09:32:45;102523.69;;;8.41;100.00
49030;BME280;43337;52.070;4.508;2023-02-19T09:35:11;102528.09;;;8.39;100.00
49030;BME280;43337;52.070;4.508;2023-02-19T09:37:36;102532.47;;;8.40;100.00
49030;BME280;43337;52.070;4.508;2023-02-19T09:40:02;102539.44;;;8.46;100.00
49030;BME280;43337;52.070;4.508;2023-02-19T09:42:28;102550.78;;;8.48;100.00
49030;BME280;43337;52.070;4.508;2023-02-19T09:44:57;102542.94;;;8.45;100.00
49030;BME280;43337;52.070;4.508;2023-02-19T09:47:25;102561.28;;;8.48;100.00
49030;BME280;43337;52.070;4.508;2023-02-19T09:49:54;102570.91;;;8.47;100.00
49030;BME280;43337;52.070;4.508;2023-02-19T09:52:46;102553.50;;;8.39;100.00
49030;BME280;43337;52.070;4.508;2023-02-19T09:55:16;102565.75;;;8.38;100.00
49030;BME280;43337;52.070;4.508;2023-02-19T09:57:43;102572.72;;;8.35;100.00
49030;BME280;43337;52.070;4.508;2023-02-19T10:00:20;102577.09;;;8.34;100.00
49030;BME280;43337;52.070;4.508;2023-02-19T10:02:50;102569.25;;;8.25;100.00
49030;BME280;43337;52.070;4.508;2023-02-19T10:05:15;102561.41;;;8.23;100.00
49030;BME280;43337;52.070;4.508;2023-02-19T10:07:46;102577.09;;;8.29;100.00
49030;BME280;43337;52.070;4.508;2023-02-19T10:12:46;102579.75;;;8.28;100.00
49030;BME280;43337;52.070;4.508;2023-02-19T10:15:30;102593.72;;;8.31;100.00
49030;BME280;43337;52.070;4.508;2023-02-19T10:17:57;102589.38;;;8.30;100.00
49030;BME280;43337;52.070;4.508;2023-02-19T10:20:24;102589.38;;;8.27;100.00
49030;BME280;43337;52.070;4.508;2023-02-19T10:23:04;102591.13;;;8.25;100.00
49030;BME280;43337;52.070;4.508;2023-02-19T10:25:32;102606.00;;;8.25;100.00
49030;BME280;43337;52.070;4.508;2023-02-19T10:27:58;102598.16;;;8.19;100.00
49030;BME280;43337;52.070;4.508;2023-02-19T10:30:28;102613.88;;;8.23;100.00
49030;BME280;43337;52.070;4.508;2023-02-19T10:35:35;102630.47;;;8.28;100.00
49030;BME280;43337;52.070;4.508;2023-02-19T10:38:04;102621.72;;;8.29;100.00
49030;BME280;43337;52.070;4.508;2023-02-19T10:40:33;102611.25;;;8.25;100.00
49030;BME280;43337;52.070;4.508;2023-02-19T10:43:02;102611.22;;;8.32;100.00
49030;BME280;43337;52.070;4.508;2023-02-19T10:45:40;102626.06;;;8.35;100.00
49030;BME280;43337;52.070;4.508;2023-02-19T10:48:23;102607.72;;;8.32;100.00
49030;BME280;43337;52.070;4.508;2023-02-19T10:50:54;102620.81;;;8.46;100.00
49030;BME280;43337;52.070;4.508;2023-02-19T10:53:41;102617.28;;;8.45;100.00
49030;BME280;43337;52.070;4.508;2023-02-19T10:58:38;102626.00;;;8.58;100.00
49030;BME280;43337;52.070;4.508;2023-02-19T11:01:23;102619.03;;;8.54;100.00
49030;BME280;43337;52.070;4.508;2023-02-19T11:04:13;102614.63;;;8.54;100.00
49030;BME280;43337;52.070;4.508;2023-02-19T11:06:37;102609.41;;;8.51;100.00
49030;BME280;43337;52.070;4.508;2023-02-19T11:09:04;102605.88;;;8.52;100.00
49030;BME280;43337;52.070;4.508;2023-02-19T11:11:34;102620.75;;;8.58;100.00
49030;BME280;43337;52.070;4.508;2023-02-19T11:14:13;102608.50;;;8.52;100.00
49030;BME280;43337;52.070;4.508;2023-02-19T11:16:46;102605.00;;;8.52;100.00
49030;BME280;43337;52.070;4.508;2023-02-19T11:19:36;102614.66;;;8.48;100.00
49030;BME280;43337;52.070;4.508;2023-02-19T11:22:29;102622.53;;;8.51;100.00
49030;BME280;43337;52.070;4.508;2023-02-19T11:27:27;102617.28;;;8.51;100.00
49030;BME280;43337;52.070;4.508;2023-02-19T11:29:52;102631.25;;;8.56;100.00
49030;BME280;43337;52.070;4.508;2023-02-19T11:32:24;102626.88;;;8.55;100.00
49030;BME280;43337;52.070;4.508;2023-02-19T11:34:51;102631.28;;;8.49;100.00
49030;BME280;43337;52.070;4.508;2023-02-19T11:37:19;102630.41;;;8.50;100.00
49030;BME280;43337;52.070;4.508;2023-02-19T11:39:49;102638.28;;;8.50;100.00
49030;BME280;43337;52.070;4.508;2023-02-19T11:42:26;102618.19;;;8.46;100.00
49030;BME280;43337;52.070;4.508;2023-02-19T11:50:53;102627.78;;;8.51;100.00
49030;BME280;43337;52.070;4.508;2023-02-19T11:53:52;102622.50;;;8.53;100.00
49030;BME280;43337;52.070;4.508;2023-02-19T11:56:31;102627.75;;;8.54;100.00
49030;BME280;43337;52.070;4.508;2023-02-19T11:59:01;102639.09;;;8.66;100.00
49030;BME280;43337;52.070;4.508;2023-02-19T12:01:58;102638.16;;;8.71;100.00
49030;BME280;43337;52.070;4.508;2023-02-19T12:07:38;102638.09;;;8.84;100.00
49030;BME280;43337;52.070;4.508;2023-02-19T12:13:09;102655.50;;;9.00;100.00
49030;BME280;43337;52.070;4.508;2023-02-19T12:15:55;102632.75;;;9.00;100.00
49030;BME280;43337;52.070;4.508;2023-02-19T12:34:42;102678.28;;;8.95;100.00
49030;BME280;43337;52.070;4.508;2023-02-19T12:45:54;102693.22;;;8.90;100.00
49030;BME280;43337;52.070;4.508;2023-02-19T12:48:45;102694.13;;;8.83;100.00
49030;BME280;43337;52.070;4.508;2023-02-19T12:51:26;102702.06;;;8.73;100.00
49030;BME280;43337;52.070;4.508;2023-02-19T12:54:09;102708.22;;;8.69;100.00
49030;BME280;43337;52.070;4.508;2023-02-19T12:56:45;102710.81;;;8.74;100.00
49030;BME280;43337;52.070;4.508;2023-02-19T12:59:21;102718.69;;;8.77;100.00
49030;BME280;43337;52.070;4.508;2023-02-19T13:04:29;102721.28;;;8.78;100.00
49030;BME280;43337;52.070;4.508;2023-02-19T13:07:12;102725.69;;;8.73;100.00
49030;BME280;43337;52.070;4.508;2023-02-19T13:09:45;102712.56;;;8.73;100.00
49030;BME280;43337;52.070;4.508;2023-02-19T13:12:34;102722.13;;;8.85;100.00
49030;BME280;43337;52.070;4.508;2023-02-19T13:17:54;102728.22;;;8.96;100.00
49030;BME280;43337;52.070;4.508;2023-02-19T13:20:32;102731.69;;;9.01;100.00
49030;BME280;43337;52.070;4.508;2023-02-19T13:34:21;102747.47;;;8.95;100.00
49030;BME280;43337;52.070;4.508;2023-02-19T13:36:50;102761.53;;;8.88;100.00
49030;BME280;43337;52.070;4.508;2023-02-19T13:39:18;102763.25;;;8.88;100.00
49030;BME280;43337;52.070;4.508;2023-02-19T13:41:51;102766.78;;;8.87;100.00
49030;BME280;43337;52.070;4.508;2023-02-19T13:44:19;102767.69;;;8.84;100.00
49030;BME280;43337;52.070;4.508;2023-02-19T13:46:47;102768.56;;;8.82;100.00
49030;BME280;43337;52.070;4.508;2023-02-19T13:51:55;102775.59;;;8.72;100.00
49030;BME280;43337;52.070;4.508;2023-02-19T13:54:26;102776.50;;;8.66;100.00
49030;BME280;43337;52.070;4.508;2023-02-19T13:59:43;102771.28;;;8.54;100.00
49030;BME280;43337;52.070;4.508;2023-02-19T14:02:24;102783.53;;;8.52;100.00
49030;BME280;43337;52.070;4.508;2023-02-19T14:14:38;102797.50;;;8.57;100.00
49030;BME280;43337;52.070;4.508;2023-02-19T14:30:27;102784.44;;;8.28;100.00
49030;BME280;43337;52.070;4.508;2023-02-19T14:32:55;102767.81;;;8.21;100.00
49030;BME280;43337;52.070;4.508;2023-02-19T14:35:24;102776.56;;;8.25;100.00
49030;BME280;43337;52.070;4.508;2023-02-19T14:37:54;102781.78;;;8.22;100.00
49030;BME280;43337;52.070;4.508;2023-02-19T14:40:32;102766.06;;;8.10;100.00
49030;BME280;43337;52.070;4.508;2023-02-19T14:43:01;102779.19;;;8.05;100.00
49030;BME280;43337;52.070;4.508;2023-02-19T14:45:35;102780.94;;;7.95;100.00
49030;BME280;43337;52.070;4.508;2023-02-19T14:48:02;102780.94;;;7.95;100.00
49030;BME280;43337;52.070;4.508;2023-02-19T14:50:30;102769.56;;;7.92;100.00
49030;BME280;43337;52.070;4.508;2023-02-19T14:52:59;102766.94;;;7.92;100.00